Seabrook, NH (03874)

7:40 PM EDT on August 28, 2015 (GMT -0400)
W1MSN Seabrook North | | Change Station
CLOSE
Current Station
Personal Weather Station
Location: Seabrook, NH
Elevation: 72 ft
Nearby Weather Stations

Elev 72 ft 42.90 °N, 70.87 °W | Updated 5 seconds ago

Clear
Clear
70.0 °F
Feels Like 70.0 °F
N
4.5
Wind Variable Wind from SE
Gusts 4.5 mph

Today
High -- | Low -- °F
--% Chance of Precip.
Yesterday
High -- | Low -- °F
Precip. -- in
6:03 AM 7:25 PM
Waxing Gibbous, 99% visible
Pressure 30.10 in
Visibility 10.0 miles
Clouds Few 5500 ft
Dew Point 61 °F
Humidity 73%
Rainfall 0.00 in
Snow Depth Not available.
UV 0 out of 12
Pollen 9.50 out of 12
Air Quality Not available.
Flu Activity Not available.
METAR KPSM 282258Z 15005KT 10SM FEW055 21/15 A3009 RMK AO2A SLP193 T02080148
Pressure 30.10 in
Visibility 10.0 miles
Clouds Few 5500 ft
Dew Point 61 °F
Humidity 73%
Rainfall 0.00 in
Snow Depth Not available.
UV 0 out of 12
Pollen 9.50 out of 12
Air Quality Not available.
Flu Activity Not available.
METAR KPSM 282258Z 15005KT 10SM FEW055 21/15 A3009 RMK AO2A SLP193 T02080148

10-Day Weather Forecast

×

Almanac

Astronomy

Aug. 28, 2015 Rise Set
Actual Time
Civil Twilight
Nautical Twilight
Astronomical Twilight
Moon
Length of Visible Light
Length of Day
Tomorrow will be .
, % of the Moon is Illuminated

Today's Extremes

State Highs State Lows

Community

WunderPhotos

Upload Photos

1,850,532 photos uploaded!

WunderBlogs® & News

Nearby

Air Quality

  Air Quality AQ Index Pollutant
Not available.

Snow Depth

Station Depth Elevation

Earthquake Activity

City Distance Mag. Time & Date
Minimum magnitude displayed is 2.5.

Coastal Water Temperatures

Place Temperature

Stations

Nearby Weather Stations

Station Location Temp. Windchill Dew Point Humidity Wind Precip. Elev Updated Type